sensor_id;sensor_type;location;lat;lon;timestamp;pressure;altitude;pressure_sealevel;temperature;humidity
71976;BME280;68326;52.124;5.424;2023-04-26T00:01:29;101973.44;;;4.73;82.19
71976;BME280;68326;52.124;5.424;2023-04-26T00:03:56;101972.53;;;4.75;81.83
71976;BME280;68326;52.124;5.424;2023-04-26T00:06:23;101975.13;;;4.74;81.56
71976;BME280;68326;52.124;5.424;2023-04-26T00:08:49;101968.25;;;4.74;81.31
71976;BME280;68326;52.124;5.424;2023-04-26T00:11:16;101970.84;;;4.73;82.03
71976;BME280;68326;52.124;5.424;2023-04-26T00:13:42;101974.31;;;4.70;81.76
71976;BME280;68326;52.124;5.424;2023-04-26T00:16:09;101982.91;;;4.67;81.63
71976;BME280;68326;52.124;5.424;2023-04-26T00:18:35;101977.78;;;4.64;82.16
71976;BME280;68326;52.124;5.424;2023-04-26T00:21:02;101980.41;;;4.58;82.37
71976;BME280;68326;52.124;5.424;2023-04-26T00:23:29;101980.44;;;4.55;82.14
71976;BME280;68326;52.124;5.424;2023-04-26T00:25:56;101971.91;;;4.47;82.48
71976;BME280;68326;52.124;5.424;2023-04-26T00:28:22;101972.75;;;4.46;83.65
71976;BME280;68326;52.124;5.424;2023-04-26T00:30:48;101965.91;;;4.43;83.57
71976;BME280;68326;52.124;5.424;2023-04-26T00:33:16;101965.94;;;4.40;84.06
71976;BME280;68326;52.124;5.424;2023-04-26T00:35:42;101965.97;;;4.36;83.45
71976;BME280;68326;52.124;5.424;2023-04-26T00:38:09;101965.13;;;4.32;83.78
71976;BME280;68326;52.124;5.424;2023-04-26T00:40:36;101969.44;;;4.30;84.27
71976;BME280;68326;52.124;5.424;2023-04-26T00:43:02;101965.19;;;4.21;83.58
71976;BME280;68326;52.124;5.424;2023-04-26T00:45:29;101965.28;;;4.06;83.97
71976;BME280;68326;52.124;5.424;2023-04-26T00:47:58;101961.91;;;3.92;84.55
71976;BME280;68326;52.124;5.424;2023-04-26T00:50:27;101958.56;;;3.74;84.41
71976;BME280;68326;52.124;5.424;2023-04-26T00:52:55;101955.16;;;3.58;84.31
71976;BME280;68326;52.124;5.424;2023-04-26T00:55:22;101959.50;;;3.49;84.62
71976;BME280;68326;52.124;5.424;2023-04-26T00:57:49;101958.66;;;3.43;84.37
71976;BME280;68326;52.124;5.424;2023-04-26T01:00:15;101956.09;;;3.36;84.75
71976;BME280;68326;52.124;5.424;2023-04-26T01:02:42;101960.41;;;3.34;85.34
71976;BME280;68326;52.124;5.424;2023-04-26T01:05:09;101962.13;;;3.30;85.74
71976;BME280;68326;52.124;5.424;2023-04-26T01:07:36;101959.56;;;3.24;85.41
71976;BME280;68326;52.124;5.424;2023-04-26T01:10:04;101962.13;;;3.12;85.32
71976;BME280;68326;52.124;5.424;2023-04-26T01:12:31;101963.00;;;3.03;86.46
71976;BME280;68326;52.124;5.424;2023-04-26T01:14:58;101969.88;;;3.02;86.54
71976;BME280;68326;52.124;5.424;2023-04-26T01:17:25;101963.88;;;3.02;86.31
71976;BME280;68326;52.124;5.424;2023-04-26T01:19:51;101970.72;;;2.98;86.64
71976;BME280;68326;52.124;5.424;2023-04-26T01:22:18;101970.72;;;2.97;86.78
71976;BME280;68326;52.124;5.424;2023-04-26T01:24:47;101966.44;;;3.03;87.81
71976;BME280;68326;52.124;5.424;2023-04-26T01:27:16;101979.28;;;3.05;87.41
71976;BME280;68326;52.124;5.424;2023-04-26T01:29:42;101975.88;;;3.04;87.53
71976;BME280;68326;52.124;5.424;2023-04-26T01:32:10;101971.59;;;3.06;87.48
71976;BME280;68326;52.124;5.424;2023-04-26T01:34:37;101971.59;;;3.13;87.02
71976;BME280;68326;52.124;5.424;2023-04-26T01:37:03;101972.41;;;3.18;88.12
71976;BME280;68326;52.124;5.424;2023-04-26T01:39:30;101979.28;;;3.22;87.92
71976;BME280;68326;52.124;5.424;2023-04-26T01:41:56;101979.28;;;3.23;88.21
71976;BME280;68326;52.124;5.424;2023-04-26T01:44:25;101975.00;;;3.25;88.18
71976;BME280;68326;52.124;5.424;2023-04-26T01:46:52;101978.41;;;3.26;87.52
71976;BME280;68326;52.124;5.424;2023-04-26T01:49:18;101969.84;;;3.25;86.99
71976;BME280;68326;52.124;5.424;2023-04-26T01:51:45;101970.69;;;3.23;87.04
71976;BME280;68326;52.124;5.424;2023-04-26T01:54:11;101960.41;;;3.14;87.05
71976;BME280;68326;52.124;5.424;2023-04-26T01:56:37;101966.44;;;3.10;86.80
71976;BME280;68326;52.124;5.424;2023-04-26T01:59:04;101959.56;;;3.05;87.46
71976;BME280;68326;52.124;5.424;2023-04-26T02:01:30;101964.75;;;3.04;87.09
71976;BME280;68326;52.124;5.424;2023-04-26T02:03:57;101964.72;;;2.99;85.81
71976;BME280;68326;52.124;5.424;2023-04-26T02:06:24;101963.03;;;2.83;85.74
71976;BME280;68326;52.124;5.424;2023-04-26T02:08:51;101956.16;;;2.65;86.15
71976;BME280;68326;52.124;5.424;2023-04-26T02:11:18;101966.44;;;2.51;86.19
71976;BME280;68326;52.124;5.424;2023-04-26T02:13:44;101963.84;;;2.37;86.16
71976;BME280;68326;52.124;5.424;2023-04-26T02:16:11;101959.56;;;2.29;86.33
71976;BME280;68326;52.124;5.424;2023-04-26T02:18:37;101968.09;;;2.20;86.88
71976;BME280;68326;52.124;5.424;2023-04-26T02:21:07;101968.06;;;2.12;87.31
71976;BME280;68326;52.124;5.424;2023-04-26T02:23:34;101964.63;;;2.06;87.04
71976;BME280;68326;52.124;5.424;2023-04-26T02:26:00;101968.00;;;1.95;86.96
71976;BME280;68326;52.124;5.424;2023-04-26T02:28:27;101968.00;;;1.88;86.64
71976;BME280;68326;52.124;5.424;2023-04-26T02:30:54;101969.66;;;1.82;86.93
71976;BME280;68326;52.124;5.424;2023-04-26T02:33:22;101972.25;;;1.81;87.10
71976;BME280;68326;52.124;5.424;2023-04-26T02:35:48;101974.81;;;1.79;88.08
71976;BME280;68326;52.124;5.424;2023-04-26T02:38:15;101976.53;;;1.82;88.13
71976;BME280;68326;52.124;5.424;2023-04-26T02:40:41;101979.97;;;1.87;88.09
71976;BME280;68326;52.124;5.424;2023-04-26T02:43:07;101973.97;;;1.85;87.96
71976;BME280;68326;52.124;5.424;2023-04-26T02:45:42;101972.25;;;1.81;88.15
71976;BME280;68326;52.124;5.424;2023-04-26T02:48:09;101967.06;;;1.73;88.01
71976;BME280;68326;52.124;5.424;2023-04-26T02:50:36;101970.50;;;1.72;87.76
71976;BME280;68326;52.124;5.424;2023-04-26T02:53:02;101963.63;;;1.70;88.68
71976;BME280;68326;52.124;5.424;2023-04-26T02:55:29;101965.31;;;1.63;88.07
71976;BME280;68326;52.124;5.424;2023-04-26T02:57:56;101961.88;;;1.56;89.17
71976;BME280;68326;52.124;5.424;2023-04-26T03:00:22;101967.88;;;1.58;88.58
71976;BME280;68326;52.124;5.424;2023-04-26T03:02:50;101960.16;;;1.61;88.89
71976;BME280;68326;52.124;5.424;2023-04-26T03:05:17;101959.34;;;1.66;88.53
71976;BME280;68326;52.124;5.424;2023-04-26T03:07:45;101960.19;;;1.65;87.71
71976;BME280;68326;52.124;5.424;2023-04-26T03:10:11;101958.47;;;1.63;88.56
71976;BME280;68326;52.124;5.424;2023-04-26T03:12:38;101960.22;;;1.66;88.72
71976;BME280;68326;52.124;5.424;2023-04-26T03:15:04;101959.38;;;1.73;89.68
71976;BME280;68326;52.124;5.424;2023-04-26T03:17:31;101955.13;;;1.78;88.99
71976;BME280;68326;52.124;5.424;2023-04-26T03:19:57;101961.97;;;1.82;88.65
71976;BME280;68326;52.124;5.424;2023-04-26T03:22:27;101952.56;;;1.84;88.69
71976;BME280;68326;52.124;5.424;2023-04-26T03:24:54;101959.44;;;1.81;88.75
71976;BME280;68326;52.124;5.424;2023-04-26T03:27:20;101960.25;;;1.80;88.38
71976;BME280;68326;52.124;5.424;2023-04-26T03:29:46;101952.56;;;1.81;88.80
71976;BME280;68326;52.124;5.424;2023-04-26T03:32:13;101954.28;;;1.79;88.09
71976;BME280;68326;52.124;5.424;2023-04-26T03:34:39;101949.97;;;1.75;88.70
71976;BME280;68326;52.124;5.424;2023-04-26T03:37:06;101958.53;;;1.73;88.70
71976;BME280;68326;52.124;5.424;2023-04-26T03:39:32;101953.38;;;1.71;88.69
71976;BME280;68326;52.124;5.424;2023-04-26T03:41:59;101949.06;;;1.66;88.44
71976;BME280;68326;52.124;5.424;2023-04-26T03:44:26;101943.06;;;1.56;88.09
71976;BME280;68326;52.124;5.424;2023-04-26T03:46:55;101952.41;;;1.48;87.88
71976;BME280;68326;52.124;5.424;2023-04-26T03:49:22;101954.94;;;1.41;87.76
71976;BME280;68326;52.124;5.424;2023-04-26T03:51:48;101958.31;;;1.33;87.99
71976;BME280;68326;52.124;5.424;2023-04-26T03:54:15;101948.91;;;1.32;88.34
71976;BME280;68326;52.124;5.424;2023-04-26T03:56:41;101948.09;;;1.34;89.07
71976;BME280;68326;52.124;5.424;2023-04-26T03:59:08;101953.19;;;1.33;88.85
71976;BME280;68326;52.124;5.424;2023-04-26T04:01:35;101945.47;;;1.28;88.70
71976;BME280;68326;52.124;5.424;2023-04-26T04:04:01;101952.31;;;1.31;88.96
71976;BME280;68326;52.124;5.424;2023-04-26T04:06:28;101950.66;;;1.39;89.05
71976;BME280;68326;52.124;5.424;2023-04-26T04:08:55;101955.81;;;1.39;89.10
71976;BME280;68326;52.124;5.424;2023-04-26T04:11:21;101954.13;;;1.42;89.85
71976;BME280;68326;52.124;5.424;2023-04-26T04:13:48;101948.19;;;1.51;89.92
71976;BME280;68326;52.124;5.424;2023-04-26T04:16:15;101955.91;;;1.57;89.50
71976;BME280;68326;52.124;5.424;2023-04-26T04:18:42;101958.44;;;1.59;89.19
71976;BME280;68326;52.124;5.424;2023-04-26T04:21:08;101946.47;;;1.53;89.24
71976;BME280;68326;52.124;5.424;2023-04-26T04:23:35;101945.56;;;1.47;89.12
71976;BME280;68326;52.124;5.424;2023-04-26T04:26:01;101949.84;;;1.45;89.19
71976;BME280;68326;52.124;5.424;2023-04-26T04:28:28;101947.25;;;1.41;88.76
71976;BME280;68326;52.124;5.424;2023-04-26T04:30:55;101949.81;;;1.40;89.00
71976;BME280;68326;52.124;5.424;2023-04-26T04:33:22;101945.53;;;1.37;89.08
71976;BME280;68326;52.124;5.424;2023-04-26T04:35:50;101948.06;;;1.36;89.26
71976;BME280;68326;52.124;5.424;2023-04-26T04:38:17;101954.94;;;1.37;89.60
71976;BME280;68326;52.124;5.424;2023-04-26T04:40:46;101948.09;;;1.42;89.83
71976;BME280;68326;52.124;5.424;2023-04-26T04:43:13;101955.84;;;1.50;90.19
71976;BME280;68326;52.124;5.424;2023-04-26T04:45:41;101947.34;;;1.60;90.73
71976;BME280;68326;52.124;5.424;2023-04-26T04:48:07;101948.22;;;1.63;90.60
71976;BME280;68326;52.124;5.424;2023-04-26T04:50:34;101949.94;;;1.68;90.70
71976;BME280;68326;52.124;5.424;2023-04-26T04:53:03;101950.84;;;1.73;89.75
71976;BME280;68326;52.124;5.424;2023-04-26T04:55:30;101953.41;;;1.74;90.57
71976;BME280;68326;52.124;5.424;2023-04-26T04:57:57;101954.25;;;1.76;90.20
71976;BME280;68326;52.124;5.424;2023-04-26T05:00:23;101960.25;;;1.78;90.09
71976;BME280;68326;52.124;5.424;2023-04-26T05:02:50;101955.13;;;1.81;90.15
71976;BME280;68326;52.124;5.424;2023-04-26T05:05:16;101967.13;;;1.84;89.79
71976;BME280;68326;52.124;5.424;2023-04-26T05:07:43;101962.00;;;1.87;90.38
71976;BME280;68326;52.124;5.424;2023-04-26T05:10:10;101972.28;;;1.87;90.40
71976;BME280;68326;52.124;5.424;2023-04-26T05:12:37;101966.28;;;1.87;90.34
71976;BME280;68326;52.124;5.424;2023-04-26T05:15:03;101963.72;;;1.88;90.77
71976;BME280;68326;52.124;5.424;2023-04-26T05:17:31;101978.28;;;1.95;91.31
71976;BME280;68326;52.124;5.424;2023-04-26T05:19:58;101971.47;;;2.10;90.89
71976;BME280;68326;52.124;5.424;2023-04-26T05:22:25;101976.66;;;2.25;91.02
71976;BME280;68326;52.124;5.424;2023-04-26T05:24:52;101981.84;;;2.39;90.48
71976;BME280;68326;52.124;5.424;2023-04-26T05:27:18;101977.56;;;2.47;91.32
71976;BME280;68326;52.124;5.424;2023-04-26T05:29:45;101982.72;;;2.53;90.09
71976;BME280;68326;52.124;5.424;2023-04-26T05:32:11;101982.72;;;2.53;90.85
71976;BME280;68326;52.124;5.424;2023-04-26T05:34:38;101976.72;;;2.63;91.07
71976;BME280;68326;52.124;5.424;2023-04-26T05:37:04;101977.59;;;2.75;91.34
71976;BME280;68326;52.124;5.424;2023-04-26T05:39:31;101981.88;;;2.86;91.50
71976;BME280;68326;52.124;5.424;2023-04-26T05:41:57;101986.16;;;3.01;91.88
71976;BME280;68326;52.124;5.424;2023-04-26T05:44:24;101993.84;;;3.20;90.92
71976;BME280;68326;52.124;5.424;2023-04-26T05:46:50;101982.69;;;3.42;90.84
71976;BME280;68326;52.124;5.424;2023-04-26T05:49:17;101989.47;;;3.60;90.40
71976;BME280;68326;52.124;5.424;2023-04-26T05:51:43;101986.84;;;3.76;89.89
71976;BME280;68326;52.124;5.424;2023-04-26T05:54:09;101981.66;;;3.91;89.60
71976;BME280;68326;52.124;5.424;2023-04-26T05:56:36;101980.69;;;4.09;89.16
71976;BME280;68326;52.124;5.424;2023-04-26T05:59:02;101979.72;;;4.27;88.42
71976;BME280;68326;52.124;5.424;2023-04-26T06:01:29;101977.09;;;4.38;86.59
71976;BME280;68326;52.124;5.424;2023-04-26T06:03:56;101978.75;;;4.48;87.46
71976;BME280;68326;52.124;5.424;2023-04-26T06:06:26;101982.09;;;4.65;86.69
71976;BME280;68326;52.124;5.424;2023-04-26T06:08:53;101988.75;;;4.88;86.51
71976;BME280;68326;52.124;5.424;2023-04-26T06:11:19;101984.25;;;5.11;85.55
71976;BME280;68326;52.124;5.424;2023-04-26T06:13:46;101991.94;;;5.16;83.51
71976;BME280;68326;52.124;5.424;2023-04-26T06:16:13;101984.88;;;5.35;83.92
71976;BME280;68326;52.124;5.424;2023-04-26T06:18:39;101982.97;;;5.56;82.71
71976;BME280;68326;52.124;5.424;2023-04-26T06:21:06;101980.25;;;5.68;83.69
71976;BME280;68326;52.124;5.424;2023-04-26T06:23:33;101981.13;;;5.65;81.84
71976;BME280;68326;52.124;5.424;2023-04-26T06:25:59;101981.13;;;5.65;81.42
71976;BME280;68326;52.124;5.424;2023-04-26T06:28:26;101981.13;;;5.65;82.72
71976;BME280;68326;52.124;5.424;2023-04-26T06:30:53;101984.47;;;5.73;81.27
71976;BME280;68326;52.124;5.424;2023-04-26T06:33:19;101999.88;;;5.81;81.85
71976;BME280;68326;52.124;5.424;2023-04-26T06:35:46;101997.16;;;5.93;82.58
71976;BME280;68326;52.124;5.424;2023-04-26T06:38:12;101990.00;;;6.16;82.04
71976;BME280;68326;52.124;5.424;2023-04-26T06:40:39;102000.13;;;6.31;80.53
71976;BME280;68326;52.124;5.424;2023-04-26T06:43:05;101996.44;;;6.47;80.14
71976;BME280;68326;52.124;5.424;2023-04-26T06:45:32;102003.94;;;6.66;80.95
71976;BME280;68326;52.124;5.424;2023-04-26T06:47:58;102003.88;;;6.70;78.01
71976;BME280;68326;52.124;5.424;2023-04-26T06:50:30;102009.94;;;6.68;79.86
71976;BME280;68326;52.124;5.424;2023-04-26T06:52:56;102011.78;;;6.60;77.07
71976;BME280;68326;52.124;5.424;2023-04-26T06:55:23;102012.63;;;6.62;77.68
71976;BME280;68326;52.124;5.424;2023-04-26T06:57:50;102014.97;;;6.76;76.41
71976;BME280;68326;52.124;5.424;2023-04-26T07:00:16;102010.50;;;6.87;76.88
71976;BME280;68326;52.124;5.424;2023-04-26T07:02:43;102005.19;;;6.94;74.93
71976;BME280;68326;52.124;5.424;2023-04-26T07:05:10;102011.81;;;7.11;75.78
71976;BME280;68326;52.124;5.424;2023-04-26T07:07:36;102010.81;;;7.18;73.93
71976;BME280;68326;52.124;5.424;2023-04-26T07:10:03;102005.09;;;7.01;73.00
71976;BME280;68326;52.124;5.424;2023-04-26T07:12:30;102007.72;;;6.99;75.89
71976;BME280;68326;52.124;5.424;2023-04-26T07:14:57;102006.63;;;7.14;73.89
71976;BME280;68326;52.124;5.424;2023-04-26T07:17:23;102002.38;;;7.08;73.51
71976;BME280;68326;52.124;5.424;2023-04-26T07:19:49;102000.56;;;7.13;72.69
71976;BME280;68326;52.124;5.424;2023-04-26T07:22:16;102001.56;;;7.06;72.97
71976;BME280;68326;52.124;5.424;2023-04-26T07:24:42;101996.28;;;7.12;72.20
71976;BME280;68326;52.124;5.424;2023-04-26T07:27:09;101993.53;;;7.22;71.85
71976;BME280;68326;52.124;5.424;2023-04-26T07:29:36;101994.78;;;7.46;71.23
71976;BME280;68326;52.124;5.424;2023-04-26T07:32:03;101996.59;;;7.42;72.52
71976;BME280;68326;52.124;5.424;2023-04-26T07:34:29;101994.63;;;7.57;72.02
71976;BME280;68326;52.124;5.424;2023-04-26T07:36:56;101995.13;;;7.74;71.26
71976;BME280;68326;52.124;5.424;2023-04-26T07:39:22;101998.66;;;7.71;70.34
71976;BME280;68326;52.124;5.424;2023-04-26T07:41:49;102002.31;;;7.60;69.90
71976;BME280;68326;52.124;5.424;2023-04-26T07:44:15;101999.72;;;7.60;69.71
71976;BME280;68326;52.124;5.424;2023-04-26T07:46:42;102005.53;;;7.71;68.81
71976;BME280;68326;52.124;5.424;2023-04-26T07:49:08;102007.22;;;7.73;71.43
71976;BME280;68326;52.124;5.424;2023-04-26T07:51:35;102007.16;;;7.76;68.53
71976;BME280;68326;52.124;5.424;2023-04-26T07:54:02;102002.78;;;7.80;68.96
71976;BME280;68326;52.124;5.424;2023-04-26T07:56:28;102008.72;;;7.85;68.46
71976;BME280;68326;52.124;5.424;2023-04-26T07:58:55;102009.16;;;7.64;67.53
71976;BME280;68326;52.124;5.424;2023-04-26T08:01:22;102010.22;;;7.52;67.24
71976;BME280;68326;52.124;5.424;2023-04-26T08:03:49;102013.47;;;7.63;69.26
71976;BME280;68326;52.124;5.424;2023-04-26T08:06:16;102023.75;;;7.68;66.60
71976;BME280;68326;52.124;5.424;2023-04-26T08:08:43;102024.41;;;7.78;66.77
71976;BME280;68326;52.124;5.424;2023-04-26T08:11:14;102021.06;;;8.16;65.84
71976;BME280;68326;52.124;5.424;2023-04-26T08:13:40;102021.84;;;8.18;66.41
71976;BME280;68326;52.124;5.424;2023-04-26T08:16:09;102013.13;;;8.22;64.04
71976;BME280;68326;52.124;5.424;2023-04-26T08:18:35;102018.22;;;8.27;61.70
71976;BME280;68326;52.124;5.424;2023-04-26T08:21:02;102015.81;;;8.17;62.25
71976;BME280;68326;52.124;5.424;2023-04-26T08:23:33;102016.81;;;8.12;64.20
71976;BME280;68326;52.124;5.424;2023-04-26T08:26:01;102022.75;;;8.17;60.81
71976;BME280;68326;52.124;5.424;2023-04-26T08:28:28;102019.59;;;8.03;63.03
71976;BME280;68326;52.124;5.424;2023-04-26T08:30:54;102012.59;;;8.06;62.37
71976;BME280;68326;52.124;5.424;2023-04-26T08:33:22;102019.53;;;8.06;62.17
71976;BME280;68326;52.124;5.424;2023-04-26T08:35:48;102018.50;;;8.13;62.63
71976;BME280;68326;52.124;5.424;2023-04-26T08:38:15;102021.81;;;8.20;61.89
71976;BME280;68326;52.124;5.424;2023-04-26T08:40:42;102015.78;;;8.21;62.22
71976;BME280;68326;52.124;5.424;2023-04-26T08:43:13;102013.19;;;8.19;62.06
71976;BME280;68326;52.124;5.424;2023-04-26T08:45:46;102009.81;;;8.15;60.63
71976;BME280;68326;52.124;5.424;2023-04-26T08:48:12;102007.44;;;8.05;60.59
71976;BME280;68326;52.124;5.424;2023-04-26T08:50:42;102009.28;;;8.00;61.53
71976;BME280;68326;52.124;5.424;2023-04-26T08:53:13;102015.31;;;8.00;64.09
71976;BME280;68326;52.124;5.424;2023-04-26T08:55:41;102018.75;;;8.01;62.22
71976;BME280;68326;52.124;5.424;2023-04-26T08:58:12;102015.63;;;7.86;63.04
71976;BME280;68326;52.124;5.424;2023-04-26T09:00:42;102017.28;;;7.89;63.90
71976;BME280;68326;52.124;5.424;2023-04-26T09:03:09;102018.22;;;7.86;64.39
71976;BME280;68326;52.124;5.424;2023-04-26T09:05:38;102017.41;;;7.83;64.70
71976;BME280;68326;52.124;5.424;2023-04-26T09:08:05;102018.38;;;7.77;66.94
71976;BME280;68326;52.124;5.424;2023-04-26T09:10:32;102021.03;;;7.74;65.54
71976;BME280;68326;52.124;5.424;2023-04-26T09:12:58;102013.50;;;7.62;65.75
71976;BME280;68326;52.124;5.424;2023-04-26T09:15:26;102018.59;;;7.65;68.10
71976;BME280;68326;52.124;5.424;2023-04-26T09:17:53;102016.81;;;7.70;68.37
71976;BME280;68326;52.124;5.424;2023-04-26T09:20:21;102015.81;;;7.75;67.60
71976;BME280;68326;52.124;5.424;2023-04-26T09:22:49;102009.75;;;7.78;67.29
71976;BME280;68326;52.124;5.424;2023-04-26T09:25:18;102014.03;;;7.78;66.74
71976;BME280;68326;52.124;5.424;2023-04-26T09:27:51;102015.78;;;7.79;65.36
71976;BME280;68326;52.124;5.424;2023-04-26T09:30:18;102013.91;;;7.85;64.06
71976;BME280;68326;52.124;5.424;2023-04-26T09:32:59;102022.28;;;7.98;64.87
71976;BME280;68326;52.124;5.424;2023-04-26T09:35:39;102020.59;;;7.97;63.25
71976;BME280;68326;52.124;5.424;2023-04-26T09:38:11;102021.22;;;8.08;63.55
71976;BME280;68326;52.124;5.424;2023-04-26T09:40:47;102022.75;;;8.17;65.02
71976;BME280;68326;52.124;5.424;2023-04-26T09:43:19;102022.53;;;8.26;62.95
71976;BME280;68326;52.124;5.424;2023-04-26T09:45:56;102018.75;;;8.43;63.05
71976;BME280;68326;52.124;5.424;2023-04-26T09:48:29;102016.78;;;8.54;63.36
71976;BME280;68326;52.124;5.424;2023-04-26T09:50:58;102016.69;;;8.59;62.75
71976;BME280;68326;52.124;5.424;2023-04-26T09:53:26;102016.25;;;8.75;64.02
71976;BME280;68326;52.124;5.424;2023-04-26T09:55:54;102019.84;;;8.71;62.14
71976;BME280;68326;52.124;5.424;2023-04-26T09:58:21;102015.66;;;8.66;60.13
71976;BME280;68326;52.124;5.424;2023-04-26T10:00:49;102018.97;;;8.71;59.36
71976;BME280;68326;52.124;5.424;2023-04-26T10:03:21;102019.50;;;8.85;61.16
71976;BME280;68326;52.124;5.424;2023-04-26T10:05:48;102014.81;;;9.01;60.73
71976;BME280;68326;52.124;5.424;2023-04-26T10:08:15;102015.16;;;9.20;60.07
71976;BME280;68326;52.124;5.424;2023-04-26T10:10:42;102014.81;;;9.34;59.23
71976;BME280;68326;52.124;5.424;2023-04-26T10:13:10;102002.34;;;9.47;59.88
71976;BME280;68326;52.124;5.424;2023-04-26T10:15:38;102005.84;;;9.46;56.72
71976;BME280;68326;52.124;5.424;2023-04-26T10:18:04;101996.59;;;9.35;56.97
71976;BME280;68326;52.124;5.424;2023-04-26T10:20:31;102000.84;;;9.38;57.14
71976;BME280;68326;52.124;5.424;2023-04-26T10:22:58;102001.69;;;9.38;57.54
71976;BME280;68326;52.124;5.424;2023-04-26T10:25:37;102008.66;;;9.38;56.42
71976;BME280;68326;52.124;5.424;2023-04-26T10:28:04;102003.50;;;9.36;53.19
71976;BME280;68326;52.124;5.424;2023-04-26T10:30:31;102010.75;;;9.24;54.23
71976;BME280;68326;52.124;5.424;2023-04-26T10:35:25;102003.88;;;9.23;55.64
71976;BME280;68326;52.124;5.424;2023-04-26T10:40:27;102003.09;;;9.19;56.58
71976;BME280;68326;52.124;5.424;2023-04-26T10:45:41;102004.31;;;9.04;55.02
71976;BME280;68326;52.124;5.424;2023-04-26T10:59:06;101999.38;;;8.95;59.09
71976;BME280;68326;52.124;5.424;2023-04-26T11:01:53;101998.00;;;9.14;58.37
71976;BME280;68326;52.124;5.424;2023-04-26T11:04:20;101999.50;;;9.23;57.75
71976;BME280;68326;52.124;5.424;2023-04-26T11:06:52;102003.78;;;9.26;59.71
71976;BME280;68326;52.124;5.424;2023-04-26T11:09:48;102009.31;;;9.46;58.56
71976;BME280;68326;52.124;5.424;2023-04-26T11:12:15;102002.50;;;9.41;57.70
71976;BME280;68326;52.124;5.424;2023-04-26T11:14:43;101993.94;;;9.37;58.64
71976;BME280;68326;52.124;5.424;2023-04-26T11:17:11;101990.72;;;9.29;54.94
71976;BME280;68326;52.124;5.424;2023-04-26T11:19:40;101993.94;;;9.37;54.14
71976;BME280;68326;52.124;5.424;2023-04-26T11:22:07;101987.22;;;9.30;53.77
71976;BME280;68326;52.124;5.424;2023-04-26T11:24:34;101988.84;;;9.34;53.87
71976;BME280;68326;52.124;5.424;2023-04-26T11:27:07;101988.94;;;9.31;53.06
71976;BME280;68326;52.124;5.424;2023-04-26T11:29:35;101983.75;;;9.31;53.31
71976;BME280;68326;52.124;5.424;2023-04-26T11:32:01;101983.03;;;9.24;53.89
71976;BME280;68326;52.124;5.424;2023-04-26T11:34:35;101988.94;;;9.31;54.20
71976;BME280;68326;52.124;5.424;2023-04-26T11:37:04;101988.13;;;9.29;53.35
71976;BME280;68326;52.124;5.424;2023-04-26T11:39:35;101975.94;;;9.31;55.48
71976;BME280;68326;52.124;5.424;2023-04-26T11:42:05;101980.94;;;9.37;55.23
71976;BME280;68326;52.124;5.424;2023-04-26T11:44:35;101979.09;;;9.42;53.88
71976;BME280;68326;52.124;5.424;2023-04-26T11:47:06;101982.66;;;9.38;52.38
71976;BME280;68326;52.124;5.424;2023-04-26T11:49:35;101975.59;;;9.43;54.18
71976;BME280;68326;52.124;5.424;2023-04-26T11:52:03;101980.19;;;9.94;52.19
71976;BME280;68326;52.124;5.424;2023-04-26T11:54:35;101976.88;;;10.19;51.34
71976;BME280;68326;52.124;5.424;2023-04-26T11:57:13;101982.16;;;10.46;52.65
71976;BME280;68326;52.124;5.424;2023-04-26T11:59:43;101973.16;;;10.82;50.29
71976;BME280;68326;52.124;5.424;2023-04-26T12:02:10;101970.75;;;10.76;50.26
71976;BME280;68326;52.124;5.424;2023-04-26T12:04:37;101968.94;;;11.05;50.19
71976;BME280;68326;52.124;5.424;2023-04-26T12:07:07;101971.16;;;10.91;49.05
71976;BME280;68326;52.124;5.424;2023-04-26T12:09:39;101980.94;;;10.28;50.19
71976;BME280;68326;52.124;5.424;2023-04-26T12:12:06;101976.53;;;10.02;51.33
71976;BME280;68326;52.124;5.424;2023-04-26T12:14:37;101983.34;;;9.76;49.95
71976;BME280;68326;52.124;5.424;2023-04-26T12:17:05;101981.59;;;9.45;50.58
71976;BME280;68326;52.124;5.424;2023-04-26T12:19:33;101977.94;;;9.21;51.96
71976;BME280;68326;52.124;5.424;2023-04-26T12:21:59;101976.13;;;9.23;51.79
71976;BME280;68326;52.124;5.424;2023-04-26T12:24:28;101983.53;;;9.37;55.20
71976;BME280;68326;52.124;5.424;2023-04-26T12:27:05;101984.94;;;9.50;52.02
71976;BME280;68326;52.124;5.424;2023-04-26T12:29:32;101988.03;;;9.32;53.03
71976;BME280;68326;52.124;5.424;2023-04-26T12:32:00;101993.38;;;9.26;52.37
71976;BME280;68326;52.124;5.424;2023-04-26T12:34:27;101984.72;;;9.27;52.93
71976;BME280;68326;52.124;5.424;2023-04-26T12:36:53;101990.09;;;9.19;53.84
71976;BME280;68326;52.124;5.424;2023-04-26T12:39:20;101989.38;;;9.14;53.06
71976;BME280;68326;52.124;5.424;2023-04-26T12:41:46;101988.72;;;9.06;53.90
71976;BME280;68326;52.124;5.424;2023-04-26T12:44:14;101997.44;;;9.03;54.32
71976;BME280;68326;52.124;5.424;2023-04-26T12:46:40;101996.72;;;8.96;53.62
71976;BME280;68326;52.124;5.424;2023-04-26T12:49:07;101994.94;;;8.98;54.87
71976;BME280;68326;52.124;5.424;2023-04-26T12:51:34;101994.84;;;9.03;54.45
71976;BME280;68326;52.124;5.424;2023-04-26T12:54:00;101987.75;;;9.10;54.36
71976;BME280;68326;52.124;5.424;2023-04-26T12:56:28;101985.19;;;9.08;54.58
71976;BME280;68326;52.124;5.424;2023-04-26T12:58:55;101983.44;;;9.09;55.40
71976;BME280;68326;52.124;5.424;2023-04-26T13:01:21;101984.78;;;9.24;56.39
71976;BME280;68326;52.124;5.424;2023-04-26T13:03:48;101985.09;;;9.44;55.88
71976;BME280;68326;52.124;5.424;2023-04-26T13:06:15;101987.25;;;9.61;53.96
71976;BME280;68326;52.124;5.424;2023-04-26T13:08:41;101985.00;;;9.78;54.92
71976;BME280;68326;52.124;5.424;2023-04-26T13:11:08;101987.44;;;9.85;55.82
71976;BME280;68326;52.124;5.424;2023-04-26T13:13:34;101989.03;;;9.90;56.85
71976;BME280;68326;52.124;5.424;2023-04-26T13:16:10;101985.50;;;9.91;54.28
71976;BME280;68326;52.124;5.424;2023-04-26T13:18:38;101992.50;;;9.89;53.70
71976;BME280;68326;52.124;5.424;2023-04-26T13:21:04;101990.50;;;9.99;56.11